sensor_id;sensor_type;location;lat;lon;timestamp;P1;durP1;ratioP1;P2;durP2;ratioP2
27893;SDS011;15240;50.812;4.792;2023-04-16T00:01:53;15.93;;;5.77;;
27893;SDS011;15240;50.812;4.792;2023-04-16T00:04:19;20.77;;;6.47;;
27893;SDS011;15240;50.812;4.792;2023-04-16T00:06:46;14.30;;;6.20;;
27893;SDS011;15240;50.812;4.792;2023-04-16T00:09:12;12.73;;;6.17;;
27893;SDS011;15240;50.812;4.792;2023-04-16T00:11:38;15.13;;;6.27;;
27893;SDS011;15240;50.812;4.792;2023-04-16T00:14:04;16.37;;;5.80;;
27893;SDS011;15240;50.812;4.792;2023-04-16T00:16:30;14.47;;;5.60;;
27893;SDS011;15240;50.812;4.792;2023-04-16T00:18:56;13.73;;;5.80;;
27893;SDS011;15240;50.812;4.792;2023-04-16T00:21:22;15.23;;;5.40;;
27893;SDS011;15240;50.812;4.792;2023-04-16T00:23:48;14.23;;;5.23;;
27893;SDS011;15240;50.812;4.792;2023-04-16T00:26:14;12.17;;;5.10;;
27893;SDS011;15240;50.812;4.792;2023-04-16T00:28:41;9.50;;;5.30;;
27893;SDS011;15240;50.812;4.792;2023-04-16T00:31:07;10.23;;;5.50;;
27893;SDS011;15240;50.812;4.792;2023-04-16T00:33:33;13.73;;;5.73;;
27893;SDS011;15240;50.812;4.792;2023-04-16T00:35:59;11.73;;;5.77;;
27893;SDS011;15240;50.812;4.792;2023-04-16T00:38:25;10.57;;;5.53;;
27893;SDS011;15240;50.812;4.792;2023-04-16T00:40:54;15.17;;;5.43;;
27893;SDS011;15240;50.812;4.792;2023-04-16T00:43:23;13.73;;;5.23;;
27893;SDS011;15240;50.812;4.792;2023-04-16T00:45:49;12.10;;;5.30;;
27893;SDS011;15240;50.812;4.792;2023-04-16T00:48:16;9.87;;;4.83;;
27893;SDS011;15240;50.812;4.792;2023-04-16T00:50:42;11.17;;;4.93;;
27893;SDS011;15240;50.812;4.792;2023-04-16T00:53:08;10.03;;;4.97;;
27893;SDS011;15240;50.812;4.792;2023-04-16T00:55:34;9.13;;;4.40;;
27893;SDS011;15240;50.812;4.792;2023-04-16T00:58:01;12.10;;;4.93;;
27893;SDS011;15240;50.812;4.792;2023-04-16T01:00:27;11.70;;;4.40;;
27893;SDS011;15240;50.812;4.792;2023-04-16T01:02:53;9.33;;;4.63;;
27893;SDS011;15240;50.812;4.792;2023-04-16T01:05:20;9.23;;;4.23;;
27893;SDS011;15240;50.812;4.792;2023-04-16T01:07:46;12.57;;;4.97;;
27893;SDS011;15240;50.812;4.792;2023-04-16T01:10:12;11.80;;;4.10;;
27893;SDS011;15240;50.812;4.792;2023-04-16T01:12:38;12.23;;;4.00;;
27893;SDS011;15240;50.812;4.792;2023-04-16T01:15:04;10.40;;;4.47;;
27893;SDS011;15240;50.812;4.792;2023-04-16T01:17:30;11.83;;;3.90;;
27893;SDS011;15240;50.812;4.792;2023-04-16T01:19:59;10.47;;;3.80;;
27893;SDS011;15240;50.812;4.792;2023-04-16T01:22:28;13.97;;;3.60;;
27893;SDS011;15240;50.812;4.792;2023-04-16T01:24:54;11.07;;;3.63;;
27893;SDS011;15240;50.812;4.792;2023-04-16T01:27:20;8.30;;;3.83;;
27893;SDS011;15240;50.812;4.792;2023-04-16T01:29:46;12.03;;;4.20;;
27893;SDS011;15240;50.812;4.792;2023-04-16T01:32:12;13.00;;;5.00;;
27893;SDS011;15240;50.812;4.792;2023-04-16T01:34:38;9.00;;;4.50;;
27893;SDS011;15240;50.812;4.792;2023-04-16T01:37:05;12.23;;;4.67;;
27893;SDS011;15240;50.812;4.792;2023-04-16T01:39:31;11.97;;;4.90;;
27893;SDS011;15240;50.812;4.792;2023-04-16T01:41:57;14.83;;;5.63;;
27893;SDS011;15240;50.812;4.792;2023-04-16T01:44:23;11.27;;;5.80;;
27893;SDS011;15240;50.812;4.792;2023-04-16T01:46:49;10.23;;;6.60;;
27893;SDS011;15240;50.812;4.792;2023-04-16T01:49:15;14.53;;;7.00;;
27893;SDS011;15240;50.812;4.792;2023-04-16T01:51:41;17.03;;;6.93;;
27893;SDS011;15240;50.812;4.792;2023-04-16T01:54:08;14.47;;;7.80;;
27893;SDS011;15240;50.812;4.792;2023-04-16T01:56:34;13.90;;;7.87;;
27893;SDS011;15240;50.812;4.792;2023-04-16T01:59:00;17.03;;;8.53;;
27893;SDS011;15240;50.812;4.792;2023-04-16T02:01:26;15.27;;;8.37;;
27893;SDS011;15240;50.812;4.792;2023-04-16T02:03:52;18.70;;;9.00;;
27893;SDS011;15240;50.812;4.792;2023-04-16T02:06:18;14.47;;;8.53;;
27893;SDS011;15240;50.812;4.792;2023-04-16T02:08:44;13.27;;;9.00;;
27893;SDS011;15240;50.812;4.792;2023-04-16T02:11:10;16.57;;;9.77;;
27893;SDS011;15240;50.812;4.792;2023-04-16T02:13:36;15.03;;;8.60;;
27893;SDS011;15240;50.812;4.792;2023-04-16T02:16:03;16.20;;;9.60;;
27893;SDS011;15240;50.812;4.792;2023-04-16T02:18:29;17.33;;;9.80;;
27893;SDS011;15240;50.812;4.792;2023-04-16T02:20:56;16.03;;;10.30;;
27893;SDS011;15240;50.812;4.792;2023-04-16T02:23:23;17.90;;;9.97;;
27893;SDS011;15240;50.812;4.792;2023-04-16T02:25:49;15.03;;;10.20;;
27893;SDS011;15240;50.812;4.792;2023-04-16T02:28:15;15.97;;;10.30;;
27893;SDS011;15240;50.812;4.792;2023-04-16T02:30:42;15.33;;;10.13;;
27893;SDS011;15240;50.812;4.792;2023-04-16T02:33:09;16.23;;;10.07;;
27893;SDS011;15240;50.812;4.792;2023-04-16T02:35:35;22.07;;;10.50;;
27893;SDS011;15240;50.812;4.792;2023-04-16T02:38:02;15.30;;;10.17;;
27893;SDS011;15240;50.812;4.792;2023-04-16T02:40:29;16.50;;;9.83;;
27893;SDS011;15240;50.812;4.792;2023-04-16T02:42:55;16.00;;;9.43;;
27893;SDS011;15240;50.812;4.792;2023-04-16T02:45:21;14.80;;;10.20;;
27893;SDS011;15240;50.812;4.792;2023-04-16T02:47:47;14.90;;;9.83;;
27893;SDS011;15240;50.812;4.792;2023-04-16T02:50:14;17.23;;;10.37;;
27893;SDS011;15240;50.812;4.792;2023-04-16T02:52:40;21.00;;;11.13;;
27893;SDS011;15240;50.812;4.792;2023-04-16T02:55:06;14.17;;;10.27;;
27893;SDS011;15240;50.812;4.792;2023-04-16T02:57:33;17.27;;;10.40;;
27893;SDS011;15240;50.812;4.792;2023-04-16T02:59:59;14.63;;;10.57;;
27893;SDS011;15240;50.812;4.792;2023-04-16T03:02:25;18.73;;;11.20;;
27893;SDS011;15240;50.812;4.792;2023-04-16T03:04:55;18.30;;;10.97;;
27893;SDS011;15240;50.812;4.792;2023-04-16T03:07:21;15.83;;;10.90;;
27893;SDS011;15240;50.812;4.792;2023-04-16T03:09:47;18.13;;;10.50;;
27893;SDS011;15240;50.812;4.792;2023-04-16T03:12:13;16.10;;;10.83;;
27893;SDS011;15240;50.812;4.792;2023-04-16T03:14:39;16.47;;;10.77;;
27893;SDS011;15240;50.812;4.792;2023-04-16T03:17:05;15.77;;;11.23;;
27893;SDS011;15240;50.812;4.792;2023-04-16T03:19:31;16.20;;;11.00;;
27893;SDS011;15240;50.812;4.792;2023-04-16T03:21:57;16.77;;;10.97;;
27893;SDS011;15240;50.812;4.792;2023-04-16T03:24:23;18.20;;;11.50;;
27893;SDS011;15240;50.812;4.792;2023-04-16T03:26:50;19.90;;;12.20;;
27893;SDS011;15240;50.812;4.792;2023-04-16T03:29:16;19.87;;;11.80;;
27893;SDS011;15240;50.812;4.792;2023-04-16T03:31:42;16.87;;;11.70;;
27893;SDS011;15240;50.812;4.792;2023-04-16T03:34:08;19.87;;;13.07;;
27893;SDS011;15240;50.812;4.792;2023-04-16T03:36:35;19.60;;;12.83;;
27893;SDS011;15240;50.812;4.792;2023-04-16T03:39:01;23.37;;;14.60;;
27893;SDS011;15240;50.812;4.792;2023-04-16T03:41:27;24.87;;;14.20;;
27893;SDS011;15240;50.812;4.792;2023-04-16T03:43:53;21.63;;;13.67;;
27893;SDS011;15240;50.812;4.792;2023-04-16T03:46:19;22.97;;;15.37;;
27893;SDS011;15240;50.812;4.792;2023-04-16T03:48:45;23.40;;;15.23;;
27893;SDS011;15240;50.812;4.792;2023-04-16T03:51:11;24.13;;;16.70;;
27893;SDS011;15240;50.812;4.792;2023-04-16T03:53:37;25.60;;;16.30;;
27893;SDS011;15240;50.812;4.792;2023-04-16T03:56:03;25.33;;;16.67;;
27893;SDS011;15240;50.812;4.792;2023-04-16T03:58:29;25.67;;;16.60;;
27893;SDS011;15240;50.812;4.792;2023-04-16T04:00:55;28.07;;;17.20;;
27893;SDS011;15240;50.812;4.792;2023-04-16T04:03:21;27.17;;;17.37;;
27893;SDS011;15240;50.812;4.792;2023-04-16T04:05:47;28.00;;;17.40;;
27893;SDS011;15240;50.812;4.792;2023-04-16T04:08:13;26.10;;;17.90;;
27893;SDS011;15240;50.812;4.792;2023-04-16T04:10:39;29.97;;;17.83;;
27893;SDS011;15240;50.812;4.792;2023-04-16T04:13:06;25.77;;;17.10;;
27893;SDS011;15240;50.812;4.792;2023-04-16T04:15:32;33.90;;;19.63;;
27893;SDS011;15240;50.812;4.792;2023-04-16T04:17:58;30.33;;;18.23;;
27893;SDS011;15240;50.812;4.792;2023-04-16T04:20:24;32.80;;;18.90;;
27893;SDS011;15240;50.812;4.792;2023-04-16T04:22:50;33.43;;;19.00;;
27893;SDS011;15240;50.812;4.792;2023-04-16T04:25:16;32.97;;;19.43;;
27893;SDS011;15240;50.812;4.792;2023-04-16T04:27:42;31.23;;;19.60;;
27893;SDS011;15240;50.812;4.792;2023-04-16T04:30:09;33.63;;;18.90;;
27893;SDS011;15240;50.812;4.792;2023-04-16T04:32:35;32.30;;;19.57;;
27893;SDS011;15240;50.812;4.792;2023-04-16T04:35:01;30.60;;;19.90;;
27893;SDS011;15240;50.812;4.792;2023-04-16T04:37:27;33.13;;;19.57;;
27893;SDS011;15240;50.812;4.792;2023-04-16T04:39:53;33.03;;;19.57;;
27893;SDS011;15240;50.812;4.792;2023-04-16T04:42:20;29.70;;;19.33;;
27893;SDS011;15240;50.812;4.792;2023-04-16T04:44:46;35.23;;;18.90;;
27893;SDS011;15240;50.812;4.792;2023-04-16T04:47:13;31.77;;;18.10;;
27893;SDS011;15240;50.812;4.792;2023-04-16T04:49:40;29.70;;;18.47;;
27893;SDS011;15240;50.812;4.792;2023-04-16T04:52:06;28.00;;;17.37;;
27893;SDS011;15240;50.812;4.792;2023-04-16T04:54:32;26.23;;;18.53;;
27893;SDS011;15240;50.812;4.792;2023-04-16T04:56:59;32.23;;;17.17;;
27893;SDS011;15240;50.812;4.792;2023-04-16T04:59:25;30.80;;;17.07;;
27893;SDS011;15240;50.812;4.792;2023-04-16T05:01:51;26.83;;;17.20;;
27893;SDS011;15240;50.812;4.792;2023-04-16T05:04:17;26.37;;;17.13;;
27893;SDS011;15240;50.812;4.792;2023-04-16T05:06:43;28.93;;;17.40;;
27893;SDS011;15240;50.812;4.792;2023-04-16T05:09:09;27.77;;;18.17;;
27893;SDS011;15240;50.812;4.792;2023-04-16T05:11:36;29.40;;;17.80;;
27893;SDS011;15240;50.812;4.792;2023-04-16T05:14:03;30.93;;;18.63;;
27893;SDS011;15240;50.812;4.792;2023-04-16T05:16:29;28.20;;;17.73;;
27893;SDS011;15240;50.812;4.792;2023-04-16T05:18:55;32.23;;;18.70;;
27893;SDS011;15240;50.812;4.792;2023-04-16T05:21:21;29.77;;;17.27;;
27893;SDS011;15240;50.812;4.792;2023-04-16T05:23:47;30.60;;;18.93;;
27893;SDS011;15240;50.812;4.792;2023-04-16T05:26:13;32.73;;;19.03;;
27893;SDS011;15240;50.812;4.792;2023-04-16T05:28:39;28.77;;;18.20;;
27893;SDS011;15240;50.812;4.792;2023-04-16T05:31:05;26.77;;;17.63;;
27893;SDS011;15240;50.812;4.792;2023-04-16T05:33:31;30.00;;;18.03;;
27893;SDS011;15240;50.812;4.792;2023-04-16T05:35:58;35.03;;;18.97;;
27893;SDS011;15240;50.812;4.792;2023-04-16T05:38:24;27.73;;;16.87;;
27893;SDS011;15240;50.812;4.792;2023-04-16T05:40:50;28.27;;;17.07;;
27893;SDS011;15240;50.812;4.792;2023-04-16T05:43:16;28.17;;;17.23;;
27893;SDS011;15240;50.812;4.792;2023-04-16T05:45:42;27.43;;;17.03;;
27893;SDS011;15240;50.812;4.792;2023-04-16T05:48:08;31.17;;;17.27;;
27893;SDS011;15240;50.812;4.792;2023-04-16T05:50:35;35.27;;;17.57;;
27893;SDS011;15240;50.812;4.792;2023-04-16T05:53:01;26.67;;;16.97;;
27893;SDS011;15240;50.812;4.792;2023-04-16T05:55:28;30.87;;;15.90;;
27893;SDS011;15240;50.812;4.792;2023-04-16T05:57:54;30.07;;;16.00;;
27893;SDS011;15240;50.812;4.792;2023-04-16T06:00:20;31.50;;;16.07;;
27893;SDS011;15240;50.812;4.792;2023-04-16T06:02:46;25.20;;;15.70;;
27893;SDS011;15240;50.812;4.792;2023-04-16T06:05:12;27.13;;;15.90;;
27893;SDS011;15240;50.812;4.792;2023-04-16T06:07:38;31.07;;;19.33;;
27893;SDS011;15240;50.812;4.792;2023-04-16T06:10:04;29.57;;;18.47;;
27893;SDS011;15240;50.812;4.792;2023-04-16T06:12:30;30.47;;;19.00;;
27893;SDS011;15240;50.812;4.792;2023-04-16T06:14:56;27.30;;;16.27;;
27893;SDS011;15240;50.812;4.792;2023-04-16T06:17:23;46.70;;;26.77;;
27893;SDS011;15240;50.812;4.792;2023-04-16T06:19:49;34.30;;;19.80;;
27893;SDS011;15240;50.812;4.792;2023-04-16T06:22:15;35.00;;;20.63;;
27893;SDS011;15240;50.812;4.792;2023-04-16T06:24:41;32.53;;;18.53;;
27893;SDS011;15240;50.812;4.792;2023-04-16T06:27:07;44.23;;;25.33;;
27893;SDS011;15240;50.812;4.792;2023-04-16T06:29:33;33.30;;;19.83;;
27893;SDS011;15240;50.812;4.792;2023-04-16T06:31:59;33.63;;;20.87;;
27893;SDS011;15240;50.812;4.792;2023-04-16T06:34:26;27.60;;;18.37;;
27893;SDS011;15240;50.812;4.792;2023-04-16T06:36:52;25.30;;;15.67;;
27893;SDS011;15240;50.812;4.792;2023-04-16T06:39:18;30.30;;;18.40;;
27893;SDS011;15240;50.812;4.792;2023-04-16T06:41:46;36.27;;;20.83;;
27893;SDS011;15240;50.812;4.792;2023-04-16T06:44:12;27.03;;;15.87;;
27893;SDS011;15240;50.812;4.792;2023-04-16T06:46:38;42.77;;;22.40;;
27893;SDS011;15240;50.812;4.792;2023-04-16T06:49:04;30.10;;;20.13;;
27893;SDS011;15240;50.812;4.792;2023-04-16T06:51:31;33.10;;;18.10;;
27893;SDS011;15240;50.812;4.792;2023-04-16T06:53:57;29.07;;;18.50;;
27893;SDS011;15240;50.812;4.792;2023-04-16T06:56:23;25.73;;;15.23;;
27893;SDS011;15240;50.812;4.792;2023-04-16T06:58:50;27.70;;;16.43;;
27893;SDS011;15240;50.812;4.792;2023-04-16T07:01:19;26.93;;;15.37;;
27893;SDS011;15240;50.812;4.792;2023-04-16T07:03:45;23.83;;;15.53;;
27893;SDS011;15240;50.812;4.792;2023-04-16T07:06:11;23.90;;;15.07;;
27893;SDS011;15240;50.812;4.792;2023-04-16T07:08:37;25.50;;;16.20;;
27893;SDS011;15240;50.812;4.792;2023-04-16T07:11:03;28.50;;;17.03;;
27893;SDS011;15240;50.812;4.792;2023-04-16T07:13:29;26.87;;;15.77;;
27893;SDS011;15240;50.812;4.792;2023-04-16T09:41:07;45.63;;;26.47;;
27893;SDS011;15240;50.812;4.792;2023-04-16T09:43:33;50.60;;;26.17;;
27893;SDS011;15240;50.812;4.792;2023-04-16T09:45:59;55.23;;;26.40;;
27893;SDS011;15240;50.812;4.792;2023-04-16T09:48:29;55.13;;;26.43;;
27893;SDS011;15240;50.812;4.792;2023-04-16T09:50:56;49.00;;;24.67;;
27893;SDS011;15240;50.812;4.792;2023-04-16T09:53:29;44.63;;;24.60;;
27893;SDS011;15240;50.812;4.792;2023-04-16T09:55:56;45.60;;;23.40;;
27893;SDS011;15240;50.812;4.792;2023-04-16T09:58:22;47.63;;;22.87;;
27893;SDS011;15240;50.812;4.792;2023-04-16T10:00:54;48.03;;;25.20;;
27893;SDS011;15240;50.812;4.792;2023-04-16T11:07:46;57.20;;;28.52;;
27893;SDS011;15240;50.812;4.792;2023-04-16T11:10:13;51.30;;;27.37;;
27893;SDS011;15240;50.812;4.792;2023-04-16T11:12:40;55.70;;;28.27;;
27893;SDS011;15240;50.812;4.792;2023-04-16T11:17:35;51.93;;;25.20;;
27893;SDS011;15240;50.812;4.792;2023-04-16T11:20:03;40.83;;;23.17;;
27893;SDS011;15240;50.812;4.792;2023-04-16T11:22:30;39.47;;;21.70;;
27893;SDS011;15240;50.812;4.792;2023-04-16T11:25:00;42.50;;;22.43;;
27893;SDS011;15240;50.812;4.792;2023-04-16T11:27:26;44.90;;;21.53;;
27893;SDS011;15240;50.812;4.792;2023-04-16T11:30:04;44.63;;;21.83;;
27893;SDS011;15240;50.812;4.792;2023-04-16T11:32:32;43.27;;;22.13;;
27893;SDS011;15240;50.812;4.792;2023-04-16T11:34:59;47.17;;;25.03;;
27893;SDS011;15240;50.812;4.792;2023-04-16T11:37:36;43.27;;;24.60;;
27893;SDS011;15240;50.812;4.792;2023-04-16T11:40:03;41.90;;;24.80;;
27893;SDS011;15240;50.812;4.792;2023-04-16T11:42:31;46.87;;;23.93;;
27893;SDS011;15240;50.812;4.792;2023-04-16T11:44:58;42.67;;;25.93;;
27893;SDS011;15240;50.812;4.792;2023-04-16T11:47:25;47.63;;;23.20;;
27893;SDS011;15240;50.812;4.792;2023-04-16T11:49:51;42.33;;;23.73;;
27893;SDS011;15240;50.812;4.792;2023-04-16T11:52:28;34.67;;;21.93;;
27893;SDS011;15240;50.812;4.792;2023-04-16T11:54:54;34.83;;;20.90;;
27893;SDS011;15240;50.812;4.792;2023-04-16T11:57:27;35.60;;;20.87;;
27893;SDS011;15240;50.812;4.792;2023-04-16T11:59:54;39.43;;;22.20;;
27893;SDS011;15240;50.812;4.792;2023-04-16T12:02:36;36.37;;;21.93;;
27893;SDS011;15240;50.812;4.792;2023-04-16T12:05:03;38.40;;;22.10;;
27893;SDS011;15240;50.812;4.792;2023-04-16T12:07:29;36.27;;;20.90;;
27893;SDS011;15240;50.812;4.792;2023-04-16T12:10:05;33.27;;;21.07;;
27893;SDS011;15240;50.812;4.792;2023-04-16T12:12:32;35.30;;;21.80;;
27893;SDS011;15240;50.812;4.792;2023-04-16T12:14:59;40.73;;;22.27;;
27893;SDS011;15240;50.812;4.792;2023-04-16T12:17:27;40.03;;;23.07;;
27893;SDS011;15240;50.812;4.792;2023-04-16T12:19:57;45.37;;;22.93;;
27893;SDS011;15240;50.812;4.792;2023-04-16T12:22:30;43.93;;;24.67;;
27893;SDS011;15240;50.812;4.792;2023-04-16T12:25:04;37.47;;;24.77;;
27893;SDS011;15240;50.812;4.792;2023-04-16T12:27:40;40.83;;;24.30;;
27893;SDS011;15240;50.812;4.792;2023-04-16T12:30:07;44.27;;;24.50;;
27893;SDS011;15240;50.812;4.792;2023-04-16T12:32:33;38.67;;;23.87;;
27893;SDS011;15240;50.812;4.792;2023-04-16T12:35:00;41.33;;;23.60;;
27893;SDS011;15240;50.812;4.792;2023-04-16T12:37:26;37.53;;;24.37;;
27893;SDS011;15240;50.812;4.792;2023-04-16T12:39:52;38.73;;;23.80;;
27893;SDS011;15240;50.812;4.792;2023-04-16T12:42:19;45.67;;;25.90;;
27893;SDS011;15240;50.812;4.792;2023-04-16T12:44:45;43.37;;;25.03;;
27893;SDS011;15240;50.812;4.792;2023-04-16T12:47:11;44.60;;;26.63;;
27893;SDS011;15240;50.812;4.792;2023-04-16T12:49:37;41.60;;;25.40;;
27893;SDS011;15240;50.812;4.792;2023-04-16T12:52:04;40.40;;;24.57;;
27893;SDS011;15240;50.812;4.792;2023-04-16T12:54:30;43.60;;;25.43;;
27893;SDS011;15240;50.812;4.792;2023-04-16T12:56:57;40.13;;;25.70;;
27893;SDS011;15240;50.812;4.792;2023-04-16T12:59:23;41.13;;;27.20;;
27893;SDS011;15240;50.812;4.792;2023-04-16T13:01:49;36.40;;;25.27;;
27893;SDS011;15240;50.812;4.792;2023-04-16T13:04:15;44.43;;;25.60;;
27893;SDS011;15240;50.812;4.792;2023-04-16T13:06:43;45.33;;;27.03;;
27893;SDS011;15240;50.812;4.792;2023-04-16T13:09:09;41.83;;;25.57;;
27893;SDS011;15240;50.812;4.792;2023-04-16T13:11:36;41.63;;;26.53;;
27893;SDS011;15240;50.812;4.792;2023-04-16T13:14:02;43.37;;;25.83;;
27893;SDS011;15240;50.812;4.792;2023-04-16T13:16:28;45.87;;;27.60;;
27893;SDS011;15240;50.812;4.792;2023-04-16T13:18:54;46.60;;;26.13;;
27893;SDS011;15240;50.812;4.792;2023-04-16T13:21:20;46.20;;;27.77;;
27893;SDS011;15240;50.812;4.792;2023-04-16T13:23:47;49.00;;;26.90;;
27893;SDS011;15240;50.812;4.792;2023-04-16T13:26:13;43.57;;;26.87;;
27893;SDS011;15240;50.812;4.792;2023-04-16T13:28:40;39.80;;;26.53;;
27893;SDS011;15240;50.812;4.792;2023-04-16T13:31:06;45.93;;;25.63;;
27893;SDS011;15240;50.812;4.792;2023-04-16T13:33:32;40.23;;;26.57;;
27893;SDS011;15240;50.812;4.792;2023-04-16T13:35:58;50.43;;;27.60;;
27893;SDS011;15240;50.812;4.792;2023-04-16T13:38:24;44.00;;;25.00;;
27893;SDS011;15240;50.812;4.792;2023-04-16T13:40:50;43.93;;;26.67;;
27893;SDS011;15240;50.812;4.792;2023-04-16T13:43:17;41.80;;;26.83;;
27893;SDS011;15240;50.812;4.792;2023-04-16T13:45:43;48.07;;;27.10;;
27893;SDS011;15240;50.812;4.792;2023-04-16T13:48:10;43.80;;;26.53;;
27893;SDS011;15240;50.812;4.792;2023-04-16T13:50:36;43.60;;;26.30;;
27893;SDS011;15240;50.812;4.792;2023-04-16T13:53:02;43.30;;;27.03;;
27893;SDS011;15240;50.812;4.792;2023-04-16T13:55:29;42.07;;;26.97;;
27893;SDS011;15240;50.812;4.792;2023-04-16T13:57:56;45.20;;;26.17;;
27893;SDS011;15240;50.812;4.792;2023-04-16T14:00:22;49.07;;;27.37;;
27893;SDS011;15240;50.812;4.792;2023-04-16T14:02:48;42.07;;;25.90;;
27893;SDS011;15240;50.812;4.792;2023-04-16T14:05:14;44.23;;;26.43;;
27893;SDS011;15240;50.812;4.792;2023-04-16T14:07:40;42.03;;;26.27;;
27893;SDS011;15240;50.812;4.792;2023-04-16T14:10:06;47.70;;;25.93;;
27893;SDS011;15240;50.812;4.792;2023-04-16T14:12:33;42.00;;;25.70;;
27893;SDS011;15240;50.812;4.792;2023-04-16T14:14:59;41.53;;;25.10;;
27893;SDS011;15240;50.812;4.792;2023-04-16T14:17:26;42.00;;;25.40;;
27893;SDS011;15240;50.812;4.792;2023-04-16T14:19:52;39.90;;;25.30;;
27893;SDS011;15240;50.812;4.792;2023-04-16T14:22:18;43.43;;;25.53;;
27893;SDS011;15240;50.812;4.792;2023-04-16T14:24:44;46.57;;;26.00;;
27893;SDS011;15240;50.812;4.792;2023-04-16T14:27:10;43.87;;;26.83;;
27893;SDS011;15240;50.812;4.792;2023-04-16T14:29:40;44.00;;;26.43;;
27893;SDS011;15240;50.812;4.792;2023-04-16T14:32:06;41.07;;;25.53;;
27893;SDS011;15240;50.812;4.792;2023-04-16T14:34:32;45.90;;;26.13;;
27893;SDS011;15240;50.812;4.792;2023-04-16T14:36:58;42.20;;;26.67;;
27893;SDS011;15240;50.812;4.792;2023-04-16T14:39:24;45.30;;;25.90;;
27893;SDS011;15240;50.812;4.792;2023-04-16T14:41:51;41.73;;;26.00;;
27893;SDS011;15240;50.812;4.792;2023-04-16T14:44:17;42.90;;;26.17;;
27893;SDS011;15240;50.812;4.792;2023-04-16T14:46:43;44.37;;;27.03;;
27893;SDS011;15240;50.812;4.792;2023-04-16T14:49:10;48.27;;;27.63;;
27893;SDS011;15240;50.812;4.792;2023-04-16T14:51:36;47.53;;;26.07;;
27893;SDS011;15240;50.812;4.792;2023-04-16T14:54:02;44.77;;;27.80;;
27893;SDS011;15240;50.812;4.792;2023-04-16T14:56:28;47.73;;;27.57;;
27893;SDS011;15240;50.812;4.792;2023-04-16T14:58:54;44.43;;;29.03;;
27893;SDS011;15240;50.812;4.792;2023-04-16T15:01:20;50.27;;;28.93;;
27893;SDS011;15240;50.812;4.792;2023-04-16T15:03:46;50.90;;;29.50;;
27893;SDS011;15240;50.812;4.792;2023-04-16T15:06:13;49.47;;;27.70;;
27893;SDS011;15240;50.812;4.792;2023-04-16T15:08:40;45.53;;;27.60;;
27893;SDS011;15240;50.812;4.792;2023-04-16T15:11:06;50.57;;;28.77;;
27893;SDS011;15240;50.812;4.792;2023-04-16T15:13:32;45.83;;;29.23;;
27893;SDS011;15240;50.812;4.792;2023-04-16T15:15:58;45.80;;;28.60;;
27893;SDS011;15240;50.812;4.792;2023-04-16T15:18:31;47.07;;;29.27;;
27893;SDS011;15240;50.812;4.792;2023-04-16T15:20:57;42.53;;;28.17;;
27893;SDS011;15240;50.812;4.792;2023-04-16T15:23:23;46.63;;;28.43;;
27893;SDS011;15240;50.812;4.792;2023-04-16T15:25:49;44.13;;;28.93;;
27893;SDS011;15240;50.812;4.792;2023-04-16T15:28:15;44.47;;;28.33;;
27893;SDS011;15240;50.812;4.792;2023-04-16T15:30:41;48.13;;;28.77;;
27893;SDS011;15240;50.812;4.792;2023-04-16T15:33:08;42.90;;;29.63;;
27893;SDS011;15240;50.812;4.792;2023-04-16T15:35:34;44.97;;;29.63;;
27893;SDS011;15240;50.812;4.792;2023-04-16T15:38:02;45.53;;;29.27;;
27893;SDS011;15240;50.812;4.792;2023-04-16T15:40:28;49.23;;;29.50;;
27893;SDS011;15240;50.812;4.792;2023-04-16T15:42:55;52.97;;;29.90;;
27893;SDS011;15240;50.812;4.792;2023-04-16T15:45:21;48.30;;;29.67;;
27893;SDS011;15240;50.812;4.792;2023-04-16T15:47:47;49.47;;;30.00;;
27893;SDS011;15240;50.812;4.792;2023-04-16T15:50:17;44.00;;;30.67;;
27893;SDS011;15240;50.812;4.792;2023-04-16T15:52:43;51.87;;;31.10;;
27893;SDS011;15240;50.812;4.792;2023-04-16T15:55:10;46.63;;;29.20;;
27893;SDS011;15240;50.812;4.792;2023-04-16T15:57:36;49.77;;;31.27;;
27893;SDS011;15240;50.812;4.792;2023-04-16T16:00:02;45.23;;;28.30;;
27893;SDS011;15240;50.812;4.792;2023-04-16T16:02:37;42.50;;;28.97;;
27893;SDS011;15240;50.812;4.792;2023-04-16T16:05:03;47.27;;;28.97;;
27893;SDS011;15240;50.812;4.792;2023-04-16T16:07:30;50.17;;;29.67;;
27893;SDS011;15240;50.812;4.792;2023-04-16T16:09:56;44.70;;;28.83;;
27893;SDS011;15240;50.812;4.792;2023-04-16T16:12:22;45.87;;;28.87;;
27893;SDS011;15240;50.812;4.792;2023-04-16T16:14:48;44.47;;;27.60;;
27893;SDS011;15240;50.812;4.792;2023-04-16T16:17:14;44.50;;;28.53;;
27893;SDS011;15240;50.812;4.792;2023-04-16T16:19:41;40.40;;;27.07;;
27893;SDS011;15240;50.812;4.792;2023-04-16T16:22:07;41.70;;;27.13;;
27893;SDS011;15240;50.812;4.792;2023-04-16T16:24:34;37.77;;;26.53;;
27893;SDS011;15240;50.812;4.792;2023-04-16T16:27:00;43.97;;;27.47;;
27893;SDS011;15240;50.812;4.792;2023-04-16T16:29:26;46.13;;;29.00;;
27893;SDS011;15240;50.812;4.792;2023-04-16T16:31:53;51.97;;;30.73;;
27893;SDS011;15240;50.812;4.792;2023-04-16T16:34:19;47.80;;;32.27;;
27893;SDS011;15240;50.812;4.792;2023-04-16T16:36:45;48.33;;;32.93;;
27893;SDS011;15240;50.812;4.792;2023-04-16T16:39:11;42.53;;;26.80;;
27893;SDS011;15240;50.812;4.792;2023-04-16T16:41:37;35.83;;;25.23;;
27893;SDS011;15240;50.812;4.792;2023-04-16T16:44:09;42.20;;;26.00;;
27893;SDS011;15240;50.812;4.792;2023-04-16T16:46:35;38.93;;;25.50;;
27893;SDS011;15240;50.812;4.792;2023-04-16T16:49:02;49.90;;;27.00;;
27893;SDS011;15240;50.812;4.792;2023-04-16T16:51:29;37.77;;;24.23;;
27893;SDS011;15240;50.812;4.792;2023-04-16T16:53:57;37.60;;;25.30;;
27893;SDS011;15240;50.812;4.792;2023-04-16T16:56:23;34.80;;;24.13;;
27893;SDS011;15240;50.812;4.792;2023-04-16T16:58:49;59.17;;;31.93;;
27893;SDS011;15240;50.812;4.792;2023-04-16T17:01:16;54.00;;;28.70;;
27893;SDS011;15240;50.812;4.792;2023-04-16T17:03:42;42.40;;;26.83;;
27893;SDS011;15240;50.812;4.792;2023-04-16T17:06:08;41.77;;;25.93;;
27893;SDS011;15240;50.812;4.792;2023-04-16T17:08:34;49.40;;;31.37;;
27893;SDS011;15240;50.812;4.792;2023-04-16T17:11:03;37.27;;;24.67;;
27893;SDS011;15240;50.812;4.792;2023-04-16T17:13:29;53.30;;;34.20;;
27893;SDS011;15240;50.812;4.792;2023-04-16T17:15:56;47.50;;;30.90;;
27893;SDS011;15240;50.812;4.792;2023-04-16T17:18:23;66.93;;;40.37;;
27893;SDS011;15240;50.812;4.792;2023-04-16T17:20:49;101.03;;;58.80;;
27893;SDS011;15240;50.812;4.792;2023-04-16T17:23:15;48.40;;;30.17;;
27893;SDS011;15240;50.812;4.792;2023-04-16T17:25:41;38.50;;;25.37;;
27893;SDS011;15240;50.812;4.792;2023-04-16T17:28:07;39.07;;;25.00;;
27893;SDS011;15240;50.812;4.792;2023-04-16T17:30:33;37.97;;;24.67;;
27893;SDS011;15240;50.812;4.792;2023-04-16T17:33:00;35.93;;;24.27;;
27893;SDS011;15240;50.812;4.792;2023-04-16T17:35:28;38.70;;;27.03;;
27893;SDS011;15240;50.812;4.792;2023-04-16T17:37:54;33.83;;;23.67;;
27893;SDS011;15240;50.812;4.792;2023-04-16T17:40:20;37.93;;;24.70;;
27893;SDS011;15240;50.812;4.792;2023-04-16T17:42:46;33.17;;;24.80;;
27893;SDS011;15240;50.812;4.792;2023-04-16T17:45:13;34.67;;;23.43;;
27893;SDS011;15240;50.812;4.792;2023-04-16T17:47:39;38.83;;;24.27;;
27893;SDS011;15240;50.812;4.792;2023-04-16T17:50:06;34.43;;;24.30;;
27893;SDS011;15240;50.812;4.792;2023-04-16T17:52:33;37.17;;;25.40;;